sensor_id;sensor_type;location;lat;lon;timestamp;temperature;humidity
69009;SHT31;56065;52.472;13.380;2024-03-25T00:00:23;8.43;90.84
69009;SHT31;56065;52.472;13.380;2024-03-25T00:02:50;8.48;90.69
69009;SHT31;56065;52.472;13.380;2024-03-25T00:05:16;8.46;90.49
69009;SHT31;56065;52.472;13.380;2024-03-25T00:07:48;8.42;90.29
69009;SHT31;56065;52.472;13.380;2024-03-25T00:10:14;8.43;90.20
69009;SHT31;56065;52.472;13.380;2024-03-25T00:12:39;8.46;90.26
69009;SHT31;56065;52.472;13.380;2024-03-25T00:15:05;8.43;90.37
69009;SHT31;56065;52.472;13.380;2024-03-25T00:17:30;8.45;90.16
69009;SHT31;56065;52.472;13.380;2024-03-25T00:19:56;8.46;90.06
69009;SHT31;56065;52.472;13.380;2024-03-25T00:22:21;8.48;89.96
69009;SHT31;56065;52.472;13.380;2024-03-25T00:24:47;8.45;89.96
69009;SHT31;56065;52.472;13.380;2024-03-25T00:27:13;8.48;89.81
69009;SHT31;56065;52.472;13.380;2024-03-25T00:29:38;8.46;89.87
69009;SHT31;56065;52.472;13.380;2024-03-25T00:32:05;8.46;89.97
69009;SHT31;56065;52.472;13.380;2024-03-25T00:34:30;8.42;89.99
69009;SHT31;56065;52.472;13.380;2024-03-25T00:36:56;8.42;89.77
69009;SHT31;56065;52.472;13.380;2024-03-25T00:39:21;8.32;89.85
69009;SHT31;56065;52.472;13.380;2024-03-25T00:41:49;8.28;89.90
69009;SHT31;56065;52.472;13.380;2024-03-25T00:44:14;8.28;90.06
69009;SHT31;56065;52.472;13.380;2024-03-25T00:46:40;8.22;90.01
69009;SHT31;56065;52.472;13.380;2024-03-25T00:49:07;8.20;89.93
69009;SHT31;56065;52.472;13.380;2024-03-25T00:51:32;8.20;90.08
69009;SHT31;56065;52.472;13.380;2024-03-25T00:53:57;8.20;89.95
69009;SHT31;56065;52.472;13.380;2024-03-25T00:56:23;8.22;90.04
69009;SHT31;56065;52.472;13.380;2024-03-25T00:58:48;8.20;89.82
69009;SHT31;56065;52.472;13.380;2024-03-25T01:01:13;8.24;90.07
69009;SHT31;56065;52.472;13.380;2024-03-25T01:03:39;8.24;89.79
69009;SHT31;56065;52.472;13.380;2024-03-25T01:06:04;8.29;89.87
69009;SHT31;56065;52.472;13.380;2024-03-25T01:08:30;8.26;89.77
69009;SHT31;56065;52.472;13.380;2024-03-25T01:10:55;8.31;89.63
69009;SHT31;56065;52.472;13.380;2024-03-25T01:13:21;8.36;89.63
69009;SHT31;56065;52.472;13.380;2024-03-25T01:15:46;8.42;89.72
69009;SHT31;56065;52.472;13.380;2024-03-25T01:18:12;8.43;89.79
69009;SHT31;56065;52.472;13.380;2024-03-25T01:20:37;8.45;89.57
69009;SHT31;56065;52.472;13.380;2024-03-25T01:23:03;8.48;89.50
69009;SHT31;56065;52.472;13.380;2024-03-25T01:25:29;8.48;89.43
69009;SHT31;56065;52.472;13.380;2024-03-25T01:27:55;8.48;89.49
69009;SHT31;56065;52.472;13.380;2024-03-25T01:30:20;8.46;89.52
69009;SHT31;56065;52.472;13.380;2024-03-25T01:32:45;8.48;89.54
69009;SHT31;56065;52.472;13.380;2024-03-25T01:35:13;8.48;89.75
69009;SHT31;56065;52.472;13.380;2024-03-25T01:37:39;8.48;89.88
69009;SHT31;56065;52.472;13.380;2024-03-25T01:40:05;8.42;89.61
69009;SHT31;56065;52.472;13.380;2024-03-25T01:42:30;8.45;89.52
69009;SHT31;56065;52.472;13.380;2024-03-25T01:44:56;8.32;89.03
69009;SHT31;56065;52.472;13.380;2024-03-25T01:47:21;8.25;89.12
69009;SHT31;56065;52.472;13.380;2024-03-25T01:49:47;8.15;88.64
69009;SHT31;56065;52.472;13.380;2024-03-25T01:52:15;8.05;89.39
69009;SHT31;56065;52.472;13.380;2024-03-25T01:54:40;8.02;89.58
69009;SHT31;56065;52.472;13.380;2024-03-25T01:57:06;7.97;89.59
69009;SHT31;56065;52.472;13.380;2024-03-25T01:59:31;7.97;89.34
69009;SHT31;56065;52.472;13.380;2024-03-25T02:01:57;7.91;89.55
69009;SHT31;56065;52.472;13.380;2024-03-25T02:04:23;7.87;89.08
69009;SHT31;56065;52.472;13.380;2024-03-25T02:06:48;7.85;89.26
69009;SHT31;56065;52.472;13.380;2024-03-25T02:09:15;7.78;89.06
69009;SHT31;56065;52.472;13.380;2024-03-25T02:11:41;7.78;89.45
69009;SHT31;56065;52.472;13.380;2024-03-25T02:14:07;7.84;89.91
69009;SHT31;56065;52.472;13.380;2024-03-25T02:16:32;7.84;89.73
69009;SHT31;56065;52.472;13.380;2024-03-25T02:18:58;7.82;89.70
69009;SHT31;56065;52.472;13.380;2024-03-25T02:21:23;7.84;89.91
69009;SHT31;56065;52.472;13.380;2024-03-25T02:23:49;7.85;90.48
69009;SHT31;56065;52.472;13.380;2024-03-25T02:26:17;7.90;90.31
69009;SHT31;56065;52.472;13.380;2024-03-25T02:28:42;7.99;90.32
69009;SHT31;56065;52.472;13.380;2024-03-25T02:31:08;8.04;90.27
69009;SHT31;56065;52.472;13.380;2024-03-25T02:33:33;8.06;90.12
69009;SHT31;56065;52.472;13.380;2024-03-25T02:35:58;8.04;89.90
69009;SHT31;56065;52.472;13.380;2024-03-25T02:38:24;8.01;90.33
69009;SHT31;56065;52.472;13.380;2024-03-25T02:40:49;7.95;90.45
69009;SHT31;56065;52.472;13.380;2024-03-25T02:43:16;7.99;90.51
69009;SHT31;56065;52.472;13.380;2024-03-25T02:45:41;8.04;90.63
69009;SHT31;56065;52.472;13.380;2024-03-25T02:48:07;8.06;90.35
69009;SHT31;56065;52.472;13.380;2024-03-25T02:50:32;8.05;90.33
69009;SHT31;56065;52.472;13.380;2024-03-25T02:52:57;8.04;90.12
69009;SHT31;56065;52.472;13.380;2024-03-25T02:55:22;8.06;89.77
69009;SHT31;56065;52.472;13.380;2024-03-25T02:57:48;7.99;89.96
69009;SHT31;56065;52.472;13.380;2024-03-25T03:00:13;7.99;89.84
69009;SHT31;56065;52.472;13.380;2024-03-25T03:02:39;7.95;89.97
69009;SHT31;56065;52.472;13.380;2024-03-25T03:05:05;7.94;90.08
69009;SHT31;56065;52.472;13.380;2024-03-25T03:07:30;7.94;90.00
69009;SHT31;56065;52.472;13.380;2024-03-25T03:09:55;7.95;89.98
69009;SHT31;56065;52.472;13.380;2024-03-25T03:12:20;7.92;89.92
69009;SHT31;56065;52.472;13.380;2024-03-25T03:14:46;7.94;90.00
69009;SHT31;56065;52.472;13.380;2024-03-25T03:17:11;7.94;89.84
69009;SHT31;56065;52.472;13.380;2024-03-25T03:19:36;7.91;89.62
69009;SHT31;56065;52.472;13.380;2024-03-25T03:22:02;7.94;89.78
69009;SHT31;56065;52.472;13.380;2024-03-25T03:24:27;7.92;89.93
69009;SHT31;56065;52.472;13.380;2024-03-25T03:26:53;7.95;89.88
69009;SHT31;56065;52.472;13.380;2024-03-25T03:29:18;7.98;89.69
69009;SHT31;56065;52.472;13.380;2024-03-25T03:31:43;7.90;89.99
69009;SHT31;56065;52.472;13.380;2024-03-25T03:34:09;7.92;89.92
69009;SHT31;56065;52.472;13.380;2024-03-25T03:36:34;7.95;89.77
69009;SHT31;56065;52.472;13.380;2024-03-25T03:38:59;7.94;89.83
69009;SHT31;56065;52.472;13.380;2024-03-25T03:41:25;7.98;89.90
69009;SHT31;56065;52.472;13.380;2024-03-25T03:43:50;7.97;89.93
69009;SHT31;56065;52.472;13.380;2024-03-25T03:46:15;8.01;89.91
69009;SHT31;56065;52.472;13.380;2024-03-25T03:48:41;8.01;89.90
69009;SHT31;56065;52.472;13.380;2024-03-25T03:51:06;8.01;89.90
69009;SHT31;56065;52.472;13.380;2024-03-25T03:53:32;8.04;89.87
69009;SHT31;56065;52.472;13.380;2024-03-25T03:56:03;7.99;89.95
69009;SHT31;56065;52.472;13.380;2024-03-25T03:58:32;8.04;90.09
69009;SHT31;56065;52.472;13.380;2024-03-25T04:00:57;8.04;89.89
69009;SHT31;56065;52.472;13.380;2024-03-25T04:03:23;8.05;90.02
69009;SHT31;56065;52.472;13.380;2024-03-25T04:05:49;8.02;90.20
69009;SHT31;56065;52.472;13.380;2024-03-25T04:08:14;8.04;90.30
69009;SHT31;56065;52.472;13.380;2024-03-25T04:10:39;8.01;90.16
69009;SHT31;56065;52.472;13.380;2024-03-25T04:13:06;8.05;90.48
69009;SHT31;56065;52.472;13.380;2024-03-25T04:15:35;8.04;90.29
69009;SHT31;56065;52.472;13.380;2024-03-25T04:18:02;8.08;90.22
69009;SHT31;56065;52.472;13.380;2024-03-25T04:20:27;8.12;90.43
69009;SHT31;56065;52.472;13.380;2024-03-25T04:22:56;8.09;90.34
69009;SHT31;56065;52.472;13.380;2024-03-25T04:25:21;8.11;90.52
69009;SHT31;56065;52.472;13.380;2024-03-25T04:27:47;8.04;90.32
69009;SHT31;56065;52.472;13.380;2024-03-25T04:30:13;8.02;90.65
69009;SHT31;56065;52.472;13.380;2024-03-25T04:32:38;8.05;90.87
69009;SHT31;56065;52.472;13.380;2024-03-25T04:35:07;8.04;90.54
69009;SHT31;56065;52.472;13.380;2024-03-25T04:37:33;8.02;90.79
69009;SHT31;56065;52.472;13.380;2024-03-25T04:39:59;7.94;90.81
69009;SHT31;56065;52.472;13.380;2024-03-25T04:42:24;7.99;90.89
69009;SHT31;56065;52.472;13.380;2024-03-25T04:44:50;8.01;90.96
69009;SHT31;56065;52.472;13.380;2024-03-25T04:47:16;8.08;90.85
69009;SHT31;56065;52.472;13.380;2024-03-25T04:49:41;8.13;90.87
69009;SHT31;56065;52.472;13.380;2024-03-25T04:52:07;8.13;90.37
69009;SHT31;56065;52.472;13.380;2024-03-25T04:54:32;8.09;90.49
69009;SHT31;56065;52.472;13.380;2024-03-25T04:56:57;8.05;90.60
69009;SHT31;56065;52.472;13.380;2024-03-25T04:59:22;8.04;90.49
69009;SHT31;56065;52.472;13.380;2024-03-25T05:01:48;8.08;90.48
69009;SHT31;56065;52.472;13.380;2024-03-25T05:04:13;8.02;90.45
69009;SHT31;56065;52.472;13.380;2024-03-25T05:06:38;7.99;90.51
69009;SHT31;56065;52.472;13.380;2024-03-25T05:09:04;8.05;90.43
69009;SHT31;56065;52.472;13.380;2024-03-25T05:11:31;8.05;90.61
69009;SHT31;56065;52.472;13.380;2024-03-25T05:13:56;7.98;90.43
69009;SHT31;56065;52.472;13.380;2024-03-25T05:16:21;7.99;90.71
69009;SHT31;56065;52.472;13.380;2024-03-25T05:18:47;8.01;90.70
69009;SHT31;56065;52.472;13.380;2024-03-25T05:21:12;7.98;90.75
69009;SHT31;56065;52.472;13.380;2024-03-25T05:23:37;7.97;90.68
69009;SHT31;56065;52.472;13.380;2024-03-25T05:26:02;8.01;90.35
69009;SHT31;56065;52.472;13.380;2024-03-25T05:28:28;7.97;90.68
69009;SHT31;56065;52.472;13.380;2024-03-25T05:30:53;7.95;90.80
69009;SHT31;56065;52.472;13.380;2024-03-25T05:33:18;8.01;90.66
69009;SHT31;56065;52.472;13.380;2024-03-25T05:35:43;8.02;90.76
69009;SHT31;56065;52.472;13.380;2024-03-25T05:38:09;8.11;90.75
69009;SHT31;56065;52.472;13.380;2024-03-25T05:40:34;8.11;91.01
69009;SHT31;56065;52.472;13.380;2024-03-25T05:42:59;8.16;90.70
69009;SHT31;56065;52.472;13.380;2024-03-25T05:45:25;8.12;90.34
69009;SHT31;56065;52.472;13.380;2024-03-25T05:47:50;8.12;90.50
69009;SHT31;56065;52.472;13.380;2024-03-25T05:50:16;8.15;90.68
69009;SHT31;56065;52.472;13.380;2024-03-25T05:52:41;8.15;90.54
69009;SHT31;56065;52.472;13.380;2024-03-25T05:55:07;8.11;90.12
69009;SHT31;56065;52.472;13.380;2024-03-25T05:57:32;8.11;90.40
69009;SHT31;56065;52.472;13.380;2024-03-25T05:59:57;8.09;90.34
69009;SHT31;56065;52.472;13.380;2024-03-25T06:02:23;8.09;90.52
69009;SHT31;56065;52.472;13.380;2024-03-25T06:04:49;8.13;90.17
69009;SHT31;56065;52.472;13.380;2024-03-25T06:07:14;8.08;90.04
69009;SHT31;56065;52.472;13.380;2024-03-25T06:09:39;8.09;90.02
69009;SHT31;56065;52.472;13.380;2024-03-25T06:12:05;8.21;90.22
69009;SHT31;56065;52.472;13.380;2024-03-25T06:14:30;8.25;89.95
69009;SHT31;56065;52.472;13.380;2024-03-25T06:16:56;8.35;90.12
69009;SHT31;56065;52.472;13.380;2024-03-25T06:19:21;8.38;89.75
69009;SHT31;56065;52.472;13.380;2024-03-25T06:21:46;8.38;89.91
69009;SHT31;56065;52.472;13.380;2024-03-25T06:24:11;8.39;89.61
69009;SHT31;56065;52.472;13.380;2024-03-25T06:26:37;8.38;89.26
69009;SHT31;56065;52.472;13.380;2024-03-25T06:29:02;8.39;89.52
69009;SHT31;56065;52.472;13.380;2024-03-25T06:31:28;8.42;89.45
69009;SHT31;56065;52.472;13.380;2024-03-25T06:34:12;8.41;89.30
69009;SHT31;56065;52.472;13.380;2024-03-25T06:36:43;8.41;89.37
69009;SHT31;56065;52.472;13.380;2024-03-25T06:39:10;8.42;89.13
69009;SHT31;56065;52.472;13.380;2024-03-25T06:41:35;8.45;89.45
69009;SHT31;56065;52.472;13.380;2024-03-25T06:44:00;8.49;89.62
69009;SHT31;56065;52.472;13.380;2024-03-25T06:46:25;8.50;89.22
69009;SHT31;56065;52.472;13.380;2024-03-25T06:48:51;8.52;89.17
69009;SHT31;56065;52.472;13.380;2024-03-25T06:51:17;8.52;89.01
69009;SHT31;56065;52.472;13.380;2024-03-25T06:53:43;8.50;88.98
69009;SHT31;56065;52.472;13.380;2024-03-25T06:56:08;8.50;89.06
69009;SHT31;56065;52.472;13.380;2024-03-25T06:58:34;8.46;88.69
69009;SHT31;56065;52.472;13.380;2024-03-25T07:01:04;8.43;88.94
69009;SHT31;56065;52.472;13.380;2024-03-25T07:03:31;8.43;88.83
69009;SHT31;56065;52.472;13.380;2024-03-25T07:05:56;8.43;89.05
69009;SHT31;56065;52.472;13.380;2024-03-25T07:08:22;8.41;89.43
69009;SHT31;56065;52.472;13.380;2024-03-25T07:10:47;8.36;89.60
69009;SHT31;56065;52.472;13.380;2024-03-25T07:13:13;8.35;89.64
69009;SHT31;56065;52.472;13.380;2024-03-25T07:15:38;8.32;89.68
69009;SHT31;56065;52.472;13.380;2024-03-25T07:18:05;8.38;89.68
69009;SHT31;56065;52.472;13.380;2024-03-25T07:20:30;8.38;89.84
69009;SHT31;56065;52.472;13.380;2024-03-25T07:22:56;8.38;89.91
69009;SHT31;56065;52.472;13.380;2024-03-25T07:25:25;8.42;89.95
69009;SHT31;56065;52.472;13.380;2024-03-25T07:27:51;8.52;89.84
69009;SHT31;56065;52.472;13.380;2024-03-25T07:30:17;8.53;89.54
69009;SHT31;56065;52.472;13.380;2024-03-25T07:32:43;8.64;89.46
69009;SHT31;56065;52.472;13.380;2024-03-25T07:35:10;8.59;89.64
69009;SHT31;56065;52.472;13.380;2024-03-25T07:37:36;8.60;89.55
69009;SHT31;56065;52.472;13.380;2024-03-25T07:40:02;8.57;89.37
69009;SHT31;56065;52.472;13.380;2024-03-25T07:42:28;8.62;88.94
69009;SHT31;56065;52.472;13.380;2024-03-25T07:44:53;8.63;88.96
69009;SHT31;56065;52.472;13.380;2024-03-25T07:47:19;8.63;89.17
69009;SHT31;56065;52.472;13.380;2024-03-25T07:49:44;8.64;89.32
69009;SHT31;56065;52.472;13.380;2024-03-25T07:52:09;8.72;89.73
69009;SHT31;56065;52.472;13.380;2024-03-25T07:54:35;8.74;89.49
69009;SHT31;56065;52.472;13.380;2024-03-25T07:57:03;8.79;89.36
69009;SHT31;56065;52.472;13.380;2024-03-25T07:59:29;8.67;89.04
69009;SHT31;56065;52.472;13.380;2024-03-25T08:01:54;8.73;89.35
69009;SHT31;56065;52.472;13.380;2024-03-25T08:04:19;8.70;89.17
69009;SHT31;56065;52.472;13.380;2024-03-25T08:06:44;8.70;89.39
69009;SHT31;56065;52.472;13.380;2024-03-25T08:09:10;8.72;89.64
69009;SHT31;56065;52.472;13.380;2024-03-25T08:11:35;8.81;89.43
69009;SHT31;56065;52.472;13.380;2024-03-25T08:14:01;8.90;89.23
69009;SHT31;56065;52.472;13.380;2024-03-25T08:16:26;8.96;88.63
69009;SHT31;56065;52.472;13.380;2024-03-25T08:18:51;9.25;88.98
69009;SHT31;56065;52.472;13.380;2024-03-25T08:21:17;9.35;88.26
69009;SHT31;56065;52.472;13.380;2024-03-25T08:23:45;9.34;87.81
69009;SHT31;56065;52.472;13.380;2024-03-25T08:26:11;9.41;87.44
69009;SHT31;56065;52.472;13.380;2024-03-25T08:28:36;9.46;87.44
69009;SHT31;56065;52.472;13.380;2024-03-25T08:31:03;9.65;87.26
69009;SHT31;56065;52.472;13.380;2024-03-25T08:33:28;9.96;87.15
69009;SHT31;56065;52.472;13.380;2024-03-25T08:35:54;10.25;86.61
69009;SHT31;56065;52.472;13.380;2024-03-25T08:38:19;10.51;85.73
69009;SHT31;56065;52.472;13.380;2024-03-25T08:40:44;10.81;85.55
69009;SHT31;56065;52.472;13.380;2024-03-25T08:43:09;11.12;84.97
69009;SHT31;56065;52.472;13.380;2024-03-25T08:45:35;11.22;84.21
69009;SHT31;56065;52.472;13.380;2024-03-25T08:48:00;11.29;84.20
69009;SHT31;56065;52.472;13.380;2024-03-25T08:50:25;11.36;83.32
69009;SHT31;56065;52.472;13.380;2024-03-25T08:52:50;11.33;83.29
69009;SHT31;56065;52.472;13.380;2024-03-25T08:55:16;11.42;83.60
69009;SHT31;56065;52.472;13.380;2024-03-25T08:57:41;11.43;83.14
69009;SHT31;56065;52.472;13.380;2024-03-25T09:00:07;11.57;83.38
69009;SHT31;56065;52.472;13.380;2024-03-25T09:02:35;11.81;82.72
69009;SHT31;56065;52.472;13.380;2024-03-25T09:05:01;11.94;82.21
69009;SHT31;56065;52.472;13.380;2024-03-25T09:07:28;12.04;81.72
69009;SHT31;56065;52.472;13.380;2024-03-25T09:09:53;12.17;81.71
69009;SHT31;56065;52.472;13.380;2024-03-25T09:12:37;12.17;81.15
69009;SHT31;56065;52.472;13.380;2024-03-25T09:15:02;11.95;79.86
69009;SHT31;56065;52.472;13.380;2024-03-25T09:17:28;11.94;80.84
69009;SHT31;56065;52.472;13.380;2024-03-25T09:19:54;11.71;80.46
69009;SHT31;56065;52.472;13.380;2024-03-25T09:22:19;11.64;80.48
69009;SHT31;56065;52.472;13.380;2024-03-25T09:24:44;11.54;81.07
69009;SHT31;56065;52.472;13.380;2024-03-25T09:27:10;11.33;80.81
69009;SHT31;56065;52.472;13.380;2024-03-25T09:29:35;11.27;81.66
69009;SHT31;56065;52.472;13.380;2024-03-25T09:32:00;11.16;81.58
69009;SHT31;56065;52.472;13.380;2024-03-25T09:34:26;11.13;81.48
69009;SHT31;56065;52.472;13.380;2024-03-25T09:36:51;11.22;81.66
69009;SHT31;56065;52.472;13.380;2024-03-25T09:39:16;11.43;81.62
69009;SHT31;56065;52.472;13.380;2024-03-25T09:41:43;11.69;81.75
69009;SHT31;56065;52.472;13.380;2024-03-25T09:44:08;11.93;80.60
69009;SHT31;56065;52.472;13.380;2024-03-25T09:46:36;12.14;80.28
69009;SHT31;56065;52.472;13.380;2024-03-25T09:49:01;12.66;80.23
69009;SHT31;56065;52.472;13.380;2024-03-25T09:51:30;13.58;78.79
69009;SHT31;56065;52.472;13.380;2024-03-25T09:53:56;14.73;76.63
69009;SHT31;56065;52.472;13.380;2024-03-25T09:56:22;16.36;73.38
69009;SHT31;56065;52.472;13.380;2024-03-25T09:58:48;17.54;70.69
69009;SHT31;56065;52.472;13.380;2024-03-25T10:01:14;18.68;69.59
69009;SHT31;56065;52.472;13.380;2024-03-25T10:03:39;19.12;67.57
69009;SHT31;56065;52.472;13.380;2024-03-25T10:06:05;19.35;65.12
69009;SHT31;56065;52.472;13.380;2024-03-25T10:08:30;19.51;65.00
69009;SHT31;56065;52.472;13.380;2024-03-25T10:10:55;19.45;63.23
69009;SHT31;56065;52.472;13.380;2024-03-25T10:13:21;18.93;63.75
69009;SHT31;56065;52.472;13.380;2024-03-25T10:15:48;18.16;64.05
69009;SHT31;56065;52.472;13.380;2024-03-25T10:18:13;17.38;66.02
69009;SHT31;56065;52.472;13.380;2024-03-25T10:20:46;17.07;66.63
69009;SHT31;56065;52.472;13.380;2024-03-25T10:23:12;16.75;66.77
69009;SHT31;56065;52.472;13.380;2024-03-25T10:25:37;16.24;67.47
69009;SHT31;56065;52.472;13.380;2024-03-25T10:28:03;15.66;67.49
69009;SHT31;56065;52.472;13.380;2024-03-25T10:30:29;15.35;68.53
69009;SHT31;56065;52.472;13.380;2024-03-25T10:33:01;15.11;68.87
69009;SHT31;56065;52.472;13.380;2024-03-25T10:35:28;14.60;69.19
69009;SHT31;56065;52.472;13.380;2024-03-25T10:37:59;14.27;69.77
69009;SHT31;56065;52.472;13.380;2024-03-25T10:40:29;14.13;70.27
69009;SHT31;56065;52.472;13.380;2024-03-25T10:43:07;14.08;68.99
69009;SHT31;56065;52.472;13.380;2024-03-25T10:45:37;14.22;69.32
69009;SHT31;56065;52.472;13.380;2024-03-25T10:48:12;14.47;69.61
69009;SHT31;56065;52.472;13.380;2024-03-25T10:50:42;14.51;69.30
69009;SHT31;56065;52.472;13.380;2024-03-25T10:53:12;14.46;69.22
69009;SHT31;56065;52.472;13.380;2024-03-25T10:55:39;14.27;69.51
69009;SHT31;56065;52.472;13.380;2024-03-25T10:58:07;14.09;69.27
69009;SHT31;56065;52.472;13.380;2024-03-25T11:00:33;13.83;69.28
69009;SHT31;56065;52.472;13.380;2024-03-25T11:03:00;13.71;68.70
69009;SHT31;56065;52.472;13.380;2024-03-25T11:05:26;13.76;69.71
69009;SHT31;56065;52.472;13.380;2024-03-25T11:07:51;13.81;69.64
69009;SHT31;56065;52.472;13.380;2024-03-25T11:10:16;13.95;69.65
69009;SHT31;56065;52.472;13.380;2024-03-25T11:12:42;14.27;69.17
69009;SHT31;56065;52.472;13.380;2024-03-25T11:15:08;14.85;67.83
69009;SHT31;56065;52.472;13.380;2024-03-25T11:17:34;15.36;67.11
69009;SHT31;56065;52.472;13.380;2024-03-25T11:20:09;15.60;66.17
69009;SHT31;56065;52.472;13.380;2024-03-25T11:22:35;15.86;66.39
69009;SHT31;56065;52.472;13.380;2024-03-25T11:25:07;15.96;65.89
69009;SHT31;56065;52.472;13.380;2024-03-25T11:27:35;15.96;65.04
69009;SHT31;56065;52.472;13.380;2024-03-25T11:30:01;16.17;64.47
69009;SHT31;56065;52.472;13.380;2024-03-25T11:32:26;16.51;64.46
69009;SHT31;56065;52.472;13.380;2024-03-25T11:34:52;16.42;63.84
69009;SHT31;56065;52.472;13.380;2024-03-25T11:37:17;17.15;64.56
69009;SHT31;56065;52.472;13.380;2024-03-25T11:39:43;17.65;61.71
69009;SHT31;56065;52.472;13.380;2024-03-25T11:42:09;17.64;60.87
69009;SHT31;56065;52.472;13.380;2024-03-25T11:44:37;17.30;61.38
69009;SHT31;56065;52.472;13.380;2024-03-25T11:47:07;18.02;61.25
69009;SHT31;56065;52.472;13.380;2024-03-25T11:49:38;19.17;60.66
69009;SHT31;56065;52.472;13.380;2024-03-25T11:52:06;19.92;57.33
69009;SHT31;56065;52.472;13.380;2024-03-25T11:54:31;20.79;56.49
69009;SHT31;56065;52.472;13.380;2024-03-25T11:56:57;21.87;55.46
69009;SHT31;56065;52.472;13.380;2024-03-25T11:59:22;22.46;53.17
69009;SHT31;56065;52.472;13.380;2024-03-25T12:01:47;23.41;53.69
69009;SHT31;56065;52.472;13.380;2024-03-25T12:04:17;23.44;51.50
69009;SHT31;56065;52.472;13.380;2024-03-25T12:06:43;23.11;51.52
69009;SHT31;56065;52.472;13.380;2024-03-25T12:09:10;22.70;50.88
69009;SHT31;56065;52.472;13.380;2024-03-25T12:11:54;21.97;51.10
69009;SHT31;56065;52.472;13.380;2024-03-25T12:14:22;21.50;51.61
69009;SHT31;56065;52.472;13.380;2024-03-25T12:16:48;21.23;52.50
69009;SHT31;56065;52.472;13.380;2024-03-25T12:19:15;20.88;53.60
69009;SHT31;56065;52.472;13.380;2024-03-25T12:21:41;20.91;53.58
69009;SHT31;56065;52.472;13.380;2024-03-25T12:24:07;21.78;52.73
69009;SHT31;56065;52.472;13.380;2024-03-25T12:26:34;21.95;51.49
69009;SHT31;56065;52.472;13.380;2024-03-25T12:29:00;21.91;51.93
69009;SHT31;56065;52.472;13.380;2024-03-25T12:31:25;22.14;52.39
69009;SHT31;56065;52.472;13.380;2024-03-25T12:33:50;22.57;51.48
69009;SHT31;56065;52.472;13.380;2024-03-25T12:36:16;23.27;51.51
69009;SHT31;56065;52.472;13.380;2024-03-25T12:38:41;22.75;50.23
69009;SHT31;56065;52.472;13.380;2024-03-25T12:41:08;22.16;50.54
69009;SHT31;56065;52.472;13.380;2024-03-25T12:43:35;21.88;51.75
69009;SHT31;56065;52.472;13.380;2024-03-25T12:46:01;21.58;51.04
69009;SHT31;56065;52.472;13.380;2024-03-25T12:48:26;21.12;52.33
69009;SHT31;56065;52.472;13.380;2024-03-25T12:50:52;20.07;52.58
69009;SHT31;56065;52.472;13.380;2024-03-25T12:53:19;19.48;53.10
69009;SHT31;56065;52.472;13.380;2024-03-25T12:55:47;18.78;53.93
69009;SHT31;56065;52.472;13.380;2024-03-25T12:58:13;17.98;54.52
69009;SHT31;56065;52.472;13.380;2024-03-25T13:00:39;17.37;54.81
69009;SHT31;56065;52.472;13.380;2024-03-25T13:03:06;17.07;56.17
69009;SHT31;56065;52.472;13.380;2024-03-25T13:05:33;16.77;56.83
69009;SHT31;56065;52.472;13.380;2024-03-25T13:07:58;16.52;57.17
69009;SHT31;56065;52.472;13.380;2024-03-25T13:10:24;16.32;57.31
69009;SHT31;56065;52.472;13.380;2024-03-25T13:12:49;16.18;57.62
69009;SHT31;56065;52.472;13.380;2024-03-25T13:15:14;16.22;58.89
69009;SHT31;56065;52.472;13.380;2024-03-25T13:17:40;16.29;58.47
69009;SHT31;56065;52.472;13.380;2024-03-25T13:20:05;16.14;58.33
69009;SHT31;56065;52.472;13.380;2024-03-25T13:22:31;15.93;57.76
69009;SHT31;56065;52.472;13.380;2024-03-25T13:24:58;15.67;57.54
69009;SHT31;56065;52.472;13.380;2024-03-25T13:27:23;15.57;58.04
69009;SHT31;56065;52.472;13.380;2024-03-25T13:29:48;15.47;58.48
69009;SHT31;56065;52.472;13.380;2024-03-25T13:32:14;15.55;58.51
69009;SHT31;56065;52.472;13.380;2024-03-25T13:34:39;15.50;58.37
69009;SHT31;56065;52.472;13.380;2024-03-25T13:37:04;15.59;58.21
69009;SHT31;56065;52.472;13.380;2024-03-25T13:39:30;15.76;58.93
69009;SHT31;56065;52.472;13.380;2024-03-25T13:41:55;15.83;58.62
69009;SHT31;56065;52.472;13.380;2024-03-25T13:44:20;15.83;57.86
69009;SHT31;56065;52.472;13.380;2024-03-25T13:46:45;16.03;58.28
69009;SHT31;56065;52.472;13.380;2024-03-25T13:49:11;16.24;57.98
69009;SHT31;56065;52.472;13.380;2024-03-25T13:51:36;16.45;57.55
69009;SHT31;56065;52.472;13.380;2024-03-25T13:54:02;16.49;57.13
69009;SHT31;56065;52.472;13.380;2024-03-25T13:56:27;16.58;56.19
69009;SHT31;56065;52.472;13.380;2024-03-25T13:58:53;16.76;56.48
69009;SHT31;56065;52.472;13.380;2024-03-25T14:01:18;17.02;57.40
69009;SHT31;56065;52.472;13.380;2024-03-25T14:03:43;17.28;56.90
69009;SHT31;56065;52.472;13.380;2024-03-25T14:06:09;17.31;56.09
69009;SHT31;56065;52.472;13.380;2024-03-25T14:08:34;17.30;56.65
69009;SHT31;56065;52.472;13.380;2024-03-25T14:11:01;17.16;57.13
69009;SHT31;56065;52.472;13.380;2024-03-25T14:13:26;16.86;57.11
69009;SHT31;56065;52.472;13.380;2024-03-25T14:15:52;16.35;57.42
69009;SHT31;56065;52.472;13.380;2024-03-25T14:18:17;16.14;59.02
69009;SHT31;56065;52.472;13.380;2024-03-25T14:20:42;15.96;59.06
69009;SHT31;56065;52.472;13.380;2024-03-25T14:23:08;15.65;59.84
69009;SHT31;56065;52.472;13.380;2024-03-25T14:25:33;15.25;60.71
69009;SHT31;56065;52.472;13.380;2024-03-25T14:27:59;15.01;61.35
69009;SHT31;56065;52.472;13.380;2024-03-25T14:30:24;14.70;62.39
69009;SHT31;56065;52.472;13.380;2024-03-25T14:32:49;14.47;63.92
69009;SHT31;56065;52.472;13.380;2024-03-25T14:35:15;14.30;64.26
69009;SHT31;56065;52.472;13.380;2024-03-25T14:37:40;14.19;64.60
69009;SHT31;56065;52.472;13.380;2024-03-25T14:40:06;14.12;65.32
69009;SHT31;56065;52.472;13.380;2024-03-25T14:42:31;14.06;65.44
69009;SHT31;56065;52.472;13.380;2024-03-25T14:44:57;13.96;64.91
69009;SHT31;56065;52.472;13.380;2024-03-25T14:47:23;14.02;65.47
69009;SHT31;56065;52.472;13.380;2024-03-25T14:49:48;13.87;64.54
69009;SHT31;56065;52.472;13.380;2024-03-25T14:52:13;13.78;64.49
69009;SHT31;56065;52.472;13.380;2024-03-25T14:54:39;13.75;64.89
69009;SHT31;56065;52.472;13.380;2024-03-25T14:57:04;13.76;65.12
69009;SHT31;56065;52.472;13.380;2024-03-25T14:59:30;13.76;65.16
69009;SHT31;56065;52.472;13.380;2024-03-25T15:02:00;13.72;65.30
69009;SHT31;56065;52.472;13.380;2024-03-25T15:04:26;13.62;65.43
69009;SHT31;56065;52.472;13.380;2024-03-25T15:06:52;13.61;65.41
69009;SHT31;56065;52.472;13.380;2024-03-25T15:09:17;13.59;66.13
69009;SHT31;56065;52.472;13.380;2024-03-25T15:11:42;13.53;65.83
69009;SHT31;56065;52.472;13.380;2024-03-25T15:14:07;13.34;65.26
69009;SHT31;56065;52.472;13.380;2024-03-25T15:16:33;13.27;65.46